Time;durP1;ratioP1;P1;durP2;ratioP2;P2;SDS_P1;SDS_P2;PMS_P1;PMS_P2;Temp;Humidity;BMP_temperature;BMP_pressure;BME280_temperature;BME280_humidity;BME280_pressure;Samples;Min_cycle;Max_cycle;Signal;HPM_P1;HPM_P2
2023/04/18 00:00:41;;;;;;;16.33;8.33;;;8.70;99.90;;;;;;5000410;28;20195;-89
2023/04/18 00:03:08;;;;;;;17.60;7.50;;;8.70;99.90;;;;;;5016707;28;20191;-89
2023/04/18 00:05:35;;;;;;;13.77;7.57;;;8.70;99.90;;;;;;5017001;28;20279;-90
2023/04/18 00:08:01;;;;;;;11.77;6.97;;;8.90;99.90;;;;;;5016851;28;20279;-90
2023/04/18 00:10:27;;;;;;;13.97;7.07;;;8.70;99.90;;;;;;5035221;28;20236;-90
2023/04/18 00:12:53;;;;;;;11.47;6.27;;;;;;;;;;5017486;28;20187;-90
2023/04/18 00:15:22;;;;;;;13.52;7.00;;;8.80;99.90;;;;;;5017109;28;20177;-90
2023/04/18 00:18:20;;;;;;;12.80;6.68;;;8.70;99.90;;;;;;5001220;28;20184;-90
2023/04/18 00:20:45;;;;;;;12.60;6.00;;;8.70;99.90;;;;;;5016889;28;20242;-90
2023/04/18 00:23:12;;;;;;;10.20;6.10;;;;;;;;;;5015915;28;20580;-90
2023/04/18 00:25:39;;;;;;;10.90;5.57;;;8.70;99.90;;;;;;5017538;28;20176;-90
2023/04/18 00:28:05;;;;;;;13.57;6.37;;;8.70;99.90;;;;;;5018013;28;20192;-90
2023/04/18 00:30:41;;;;;;;12.20;6.22;;;8.10;99.90;;;;;;5042745;28;20251;-90
2023/04/18 00:33:07;;;;;;;9.53;5.73;;;9.10;99.90;;;;;;5002289;28;20180;-90
2023/04/18 00:35:33;;;;;;;15.77;6.80;;;8.90;99.90;;;;;;5017340;28;20172;-89
2023/04/18 00:37:59;;;;;;;11.75;6.40;;;;;;;;;;5016348;28;20183;-91
2023/04/18 00:40:27;;;;;;;11.20;6.38;;;8.70;99.90;;;;;;5016481;28;20204;-90
2023/04/18 00:42:53;;;;;;;13.57;6.43;;;8.60;99.90;;;;;;5000219;28;20259;-90
2023/04/18 00:45:19;;;;;;;12.98;6.22;;;;;;;;;;4999403;28;20204;-90
2023/04/18 00:47:45;;;;;;;11.07;5.67;;;8.70;99.90;;;;;;5016609;28;20204;-90
2023/04/18 00:50:11;;;;;;;12.93;5.20;;;8.60;99.90;;;;;;5016148;28;20613;-90
2023/04/18 00:52:37;;;;;;;11.77;6.33;;;8.70;99.90;;;;;;4999795;28;20176;-90
2023/04/18 00:55:06;;;;;;;10.68;5.72;;;8.60;99.90;;;;;;5016001;28;20176;-90
2023/04/18 00:57:32;;;;;;;9.97;5.43;;;8.70;99.90;;;;;;5016168;28;20183;-89
2023/04/18 00:59:59;;;;;;;11.75;5.65;;;8.10;99.90;;;;;;5016273;28;20176;-90
2023/04/18 01:02:29;;;;;;;15.70;6.32;;;8.80;99.90;;;;;;5016225;28;20195;-89
2023/04/18 01:04:55;;;;;;;13.18;6.10;;;8.60;99.90;;;;;;5047020;28;20236;-89
2023/04/18 01:07:21;;;;;;;10.10;5.53;;;8.60;99.90;;;;;;5028819;28;20200;-89
2023/04/18 01:09:47;;;;;;;11.70;5.70;;;8.60;99.90;;;;;;5020150;28;20643;-89
2023/04/18 01:12:12;;;;;;;12.35;5.93;;;8.60;99.90;;;;;;5016849;28;20169;-89
2023/04/18 01:14:42;;;;;;;11.73;6.40;;;8.80;99.90;;;;;;5040017;28;20167;-89
2023/04/18 01:17:09;;;;;;;10.10;6.17;;;8.60;99.90;;;;;;5040187;28;20181;-90
2023/04/18 01:19:38;;;;;;;17.73;6.33;;;8.60;99.90;;;;;;5033557;28;20177;-90
2023/04/18 01:22:13;;;;;;;15.47;6.40;;;8.60;99.90;;;;;;5018742;28;20200;-88
2023/04/18 01:24:39;;;;;;;10.10;5.37;;;8.50;99.90;;;;;;5038718;28;20195;-89
2023/04/18 01:27:05;;;;;;;14.27;6.43;;;;;;;;;;5026917;28;20628;-90
2023/04/18 01:29:31;;;;;;;11.17;5.27;;;8.50;99.90;;;;;;5020079;28;20282;-89
2023/04/18 01:31:57;;;;;;;15.13;6.50;;;;;;;;;;5017385;28;20208;-90
2023/04/18 01:34:23;;;;;;;13.13;5.78;;;8.50;99.90;;;;;;5033101;28;20180;-89
2023/04/18 01:36:49;;;;;;;9.60;5.53;;;;;;;;;;5037442;28;20508;-89
2023/04/18 01:39:14;;;;;;;11.63;5.43;;;8.50;99.90;;;;;;5036670;28;20184;-89
2023/04/18 01:41:41;;;;;;;10.70;5.17;;;8.50;99.90;;;;;;5038265;28;20188;-89
2023/04/18 01:44:09;;;;;;;11.77;5.77;;;8.50;99.90;;;;;;5020505;28;20330;-90
2023/04/18 01:46:38;;;;;;;10.17;5.47;;;8.60;99.90;;;;;;5036050;28;20312;-89
2023/04/18 01:49:04;;;;;;;10.17;5.33;;;8.50;99.90;;;;;;5035814;28;20241;-88
2023/04/18 01:51:30;;;;;;;9.27;4.87;;;8.40;99.90;;;;;;5036735;28;20303;-89
2023/04/18 01:53:56;;;;;;;14.03;5.93;;;;;;;;;;5019174;28;20192;-89
2023/04/18 01:56:22;;;;;;;12.93;6.20;;;8.40;99.90;;;;;;5035448;28;20187;-89
2023/04/18 01:58:47;;;;;;;17.70;6.13;;;8.50;99.90;;;;;;5035489;28;20264;-89
2023/04/18 02:01:13;;;;;;;13.45;5.93;;;;;;;;;;5036752;28;20184;-89
2023/04/18 02:03:39;;;;;;;11.20;5.57;;;8.50;99.90;;;;;;5019175;28;20234;-89
2023/04/18 02:06:05;;;;;;;13.53;6.53;;;8.50;99.90;;;;;;5019172;28;20180;-89
2023/04/18 02:08:34;;;;;;;15.27;6.85;;;8.40;99.90;;;;;;5035651;28;20184;-88
2023/04/18 02:11:00;;;;;;;14.73;5.97;;;8.50;99.90;;;;;;5019523;28;20307;-89
2023/04/18 02:13:26;;;;;;;11.90;6.77;;;8.50;99.90;;;;;;5035162;28;20184;-88
2023/04/18 02:15:52;;;;;;;14.23;7.53;;;8.50;99.90;;;;;;5002700;28;20235;-90
2023/04/18 02:18:17;;;;;;;11.37;6.83;;;8.50;99.90;;;;;;5035255;28;20247;-89
2023/04/18 02:20:43;;;;;;;12.13;6.20;;;8.50;99.90;;;;;;5002474;28;20185;-90
2023/04/18 02:23:09;;;;;;;14.27;6.47;;;8.50;99.90;;;;;;5038537;28;20177;-90
2023/04/18 02:25:35;;;;;;;25.43;8.43;;;8.40;99.90;;;;;;5038678;28;20183;-89
2023/04/18 02:28:01;;;;;;;11.73;6.07;;;;;;;;;;5035394;28;20191;-90
2023/04/18 02:30:27;;;;;;;11.87;6.57;;;8.50;99.90;;;;;;5034964;28;20720;-90
2023/04/18 02:32:55;;;;;;;12.88;6.05;;;8.50;99.90;;;;;;5035215;28;20256;-89
2023/04/18 02:35:22;;;;;;;13.23;6.33;;;8.50;99.90;;;;;;5034964;28;20180;-89
2023/04/18 02:37:48;;;;;;;15.50;7.23;;;8.40;99.90;;;;;;5035234;28;20180;-90
2023/04/18 02:40:14;;;;;;;11.27;6.73;;;8.50;99.90;;;;;;5018958;28;20188;-89
2023/04/18 02:42:42;;;;;;;10.67;5.90;;;;;;;;;;5034946;28;20180;-89
2023/04/18 02:45:08;;;;;;;17.25;7.25;;;8.50;99.90;;;;;;5035150;28;20191;-89
2023/04/18 02:47:35;;;;;;;12.60;6.77;;;8.60;99.90;;;;;;5035038;28;20180;-90
2023/04/18 02:50:01;;;;;;;20.73;7.87;;;;;;;;;;5018890;28;20185;-90
2023/04/18 02:52:26;;;;;;;17.70;8.57;;;8.50;99.90;;;;;;5036526;28;20635;-90
2023/04/18 02:54:53;;;;;;;14.33;6.50;;;;;;;;;;5035691;28;20192;-90
2023/04/18 02:57:19;;;;;;;18.83;7.90;;;;;;;;;;5035851;28;20180;-90
2023/04/18 02:59:45;;;;;;;13.83;6.90;;;;;;;;;;5037293;28;20181;-89
2023/04/18 03:02:11;;;;;;;12.23;6.70;;;8.50;99.90;;;;;;5035934;28;20191;-89
2023/04/18 03:04:36;;;;;;;13.73;6.65;;;7.60;99.90;;;;;;5037722;28;20195;-90
2023/04/18 03:07:02;;;;;;;24.03;8.23;;;8.50;99.90;;;;;;5037617;28;20181;-90
2023/04/18 03:09:28;;;;;;;12.83;7.17;;;8.40;99.90;;;;;;5037025;28;20237;-88
2023/04/18 03:11:54;;;;;;;12.27;7.33;;;;;;;;;;5020709;28;20251;-90
2023/04/18 03:14:20;;;;;;;20.37;8.00;;;8.50;99.90;;;;;;5037201;28;20235;-89
2023/04/18 03:16:45;;;;;;;19.07;7.67;;;8.60;99.90;;;;;;5035972;28;20180;-89
2023/04/18 03:19:11;;;;;;;13.70;7.27;;;;;;;;;;5037847;28;20188;-89
2023/04/18 03:21:39;;;;;;;13.97;6.30;;;8.50;99.90;;;;;;5021057;28;20220;-90
2023/04/18 03:24:05;;;;;;;13.70;7.37;;;8.40;99.90;;;;;;5049060;28;20179;-91
2023/04/18 03:26:31;;;;;;;15.07;7.53;;;8.70;99.90;;;;;;5058957;28;20168;-89
2023/04/18 03:28:57;;;;;;;19.40;9.80;;;8.40;99.90;;;;;;5045109;28;20195;-90
2023/04/18 03:31:23;;;;;;;17.20;9.47;;;;;;;;;;5022737;28;20614;-89
2023/04/18 03:33:50;;;;;;;15.60;9.00;;;8.50;99.90;;;;;;5031038;28;20184;-87
2023/04/18 03:36:17;;;;;;;18.03;8.53;;;8.50;99.90;;;;;;5022832;28;20176;-88
2023/04/18 03:38:43;;;;;;;21.20;9.07;;;;;;;;;;5038476;28;20227;-89
2023/04/18 03:41:08;;;;;;;19.47;8.77;;;8.50;99.90;;;;;;5050596;28;20187;-90
2023/04/18 03:43:37;;;;;;;13.30;7.67;;;;;;;;;;5030539;28;20184;-89
2023/04/18 03:46:02;;;;;;;17.07;7.90;;;8.50;99.90;;;;;;5045199;28;20184;-89
2023/04/18 03:48:28;;;;;;;25.53;10.23;;;8.50;99.90;;;;;;5012261;28;20176;-90
2023/04/18 03:50:54;;;;;;;14.50;8.00;;;8.50;99.90;;;;;;5032220;28;20210;-89
2023/04/18 03:53:20;;;;;;;18.07;8.73;;;8.50;99.90;;;;;;5040639;28;20204;-89
2023/04/18 03:55:46;;;;;;;17.23;8.87;;;;;;;;;;5039780;28;20176;-89
2023/04/18 03:58:12;;;;;;;16.17;8.43;;;8.50;99.90;;;;;;5013199;28;20185;-90
2023/04/18 04:00:38;;;;;;;15.23;7.83;;;;;;;;;;4995924;28;20260;-89
2023/04/18 04:03:03;;;;;;;17.87;7.50;;;8.50;99.90;;;;;;5031066;28;20181;-89
2023/04/18 04:05:30;;;;;;;19.87;8.77;;;;;;;;;;5024258;28;20211;-89
2023/04/18 04:07:55;;;;;;;15.07;8.13;;;8.50;99.90;;;;;;5040527;28;20169;-89
2023/04/18 04:10:21;;;;;;;15.00;8.13;;;8.50;99.90;;;;;;5040940;28;20231;-88
2023/04/18 04:12:47;;;;;;;12.13;7.67;;;;;;;;;;5024138;28;20211;-90
2023/04/18 04:15:13;;;;;;;17.57;8.57;;;8.50;99.90;;;;;;5024330;28;20164;-89
2023/04/18 04:17:39;;;;;;;19.93;8.97;;;;;;;;;;5039443;28;20188;-93
2023/04/18 04:20:08;;;;;;;17.20;8.80;;;8.50;99.90;;;;;;5037757;28;20187;-87
2023/04/18 04:22:35;;;;;;;11.77;7.67;;;;;;;;;;5052182;28;20176;-89
2023/04/18 04:25:01;;;;;;;23.93;8.53;;;8.50;99.90;;;;;;5036551;28;20188;-88
2023/04/18 04:27:27;;;;;;;15.30;7.63;;;8.40;99.90;;;;;;5023508;28;20186;-90
2023/04/18 04:29:52;;;;;;;17.50;9.40;;;8.60;99.90;;;;;;5003752;28;20304;-88
2023/04/18 04:32:21;;;;;;;13.33;7.90;;;8.50;99.90;;;;;;5002510;28;20213;-88
2023/04/18 04:34:46;;;;;;;21.90;8.77;;;8.50;99.90;;;;;;4997554;28;20184;-89
2023/04/18 04:37:13;;;;;;;17.80;8.33;;;8.60;99.90;;;;;;5013283;28;20177;-89
2023/04/18 04:39:38;;;;;;;16.23;7.17;;;5.90;99.90;;;;;;4996968;28;20220;-89
2023/04/18 04:42:04;;;;;;;18.63;8.60;;;;;;;;;;4997379;28;20189;-89
2023/04/18 04:44:30;;;;;;;21.87;9.63;;;8.60;99.90;;;;;;5012916;28;20188;-89
2023/04/18 04:46:56;;;;;;;19.57;9.43;;;8.60;99.90;;;;;;4999439;28;20184;-89
2023/04/18 04:49:22;;;;;;;18.50;8.97;;;;;;;;;;4992672;28;20245;-91
2023/04/18 04:51:48;;;;;;;19.95;8.23;;;8.60;99.90;;;;;;5027128;28;20315;-90
2023/04/18 04:54:14;;;;;;;17.50;9.67;;;8.60;99.90;;;;;;5017302;28;20217;-89
2023/04/18 04:56:42;;;;;;;16.57;10.40;;;8.60;99.90;;;;;;5014612;28;20200;-90
2023/04/18 04:59:08;;;;;;;16.83;9.00;;;8.90;99.90;;;;;;4996957;28;20181;-89
2023/04/18 05:01:34;;;;;;;13.30;8.13;;;;;;;;;;5013286;28;20203;-89
2023/04/18 05:04:00;;;;;;;18.10;8.43;;;8.60;99.90;;;;;;5012598;28;20628;-89
2023/04/18 05:06:26;;;;;;;25.43;10.40;;;8.70;99.90;;;;;;5019733;28;20267;-87
2023/04/18 05:08:52;;;;;;;19.67;9.03;;;8.80;99.90;;;;;;5031274;28;20187;-87
2023/04/18 05:11:20;;;;;;;21.40;10.30;;;8.60;99.90;;;;;;5039462;28;20205;-87
2023/04/18 05:13:45;;;;;;;23.13;10.17;;;8.60;99.90;;;;;;5036226;28;20180;-87
2023/04/18 05:16:11;;;;;;;18.92;9.10;;;;;;;;;;5039887;28;20653;-87
2023/04/18 05:18:39;;;;;;;22.60;8.57;;;8.60;99.90;;;;;;5036368;28;20196;-88
2023/04/18 05:21:05;;;;;;;25.37;11.67;;;8.70;99.90;;;;;;5017209;28;20200;-87
2023/04/18 05:23:31;;;;;;;20.97;10.13;;;8.70;99.90;;;;;;5036007;28;20542;-89
2023/04/18 05:25:56;;;;;;;34.33;13.80;;;8.60;99.90;;;;;;5036108;28;20177;-88
2023/04/18 05:28:26;;;;;;;28.60;14.53;;;8.70;99.90;;;;;;5019650;28;20662;-88
2023/04/18 05:30:52;;;;;;;29.30;14.33;;;8.70;99.90;;;;;;5003159;28;20244;-89
2023/04/18 05:33:17;;;;;;;31.07;14.67;;;8.70;99.90;;;;;;4993827;28;20271;-88
2023/04/18 05:35:43;;;;;;;29.33;13.57;;;8.70;99.90;;;;;;4987758;28;20199;-88
2023/04/18 05:38:11;;;;;;;26.03;13.27;;;8.70;99.90;;;;;;4967676;28;20197;-89
2023/04/18 05:40:37;;;;;;;26.27;13.00;;;8.70;99.90;;;;;;4989588;28;20631;-87
2023/04/18 05:43:05;;;;;;;28.08;11.30;;;8.70;99.90;;;;;;5014743;28;20188;-90
2023/04/18 05:45:33;;;;;;;22.70;10.17;;;8.70;99.90;;;;;;5011533;28;20187;-89
2023/04/18 05:58:20;;;;;;;26.92;10.48;;;9.00;99.90;;;;;;5975728;23;20239;-88
2023/04/18 06:00:47;;;;;;;24.67;11.93;;;9.10;99.90;;;;;;5042849;28;20194;-86
2023/04/18 06:03:12;;;;;;;24.97;10.47;;;9.20;99.90;;;;;;5033299;28;20224;-89
2023/04/18 06:05:39;;;;;;;22.42;10.63;;;;;;;;;;5031542;28;20243;-86
2023/04/18 06:08:06;;;;;;;19.30;9.45;;;9.40;99.90;;;;;;5040424;28;20197;-87
2023/04/18 06:10:32;;;;;;;18.70;9.57;;;9.50;99.90;;;;;;5039130;28;20295;-88
2023/04/18 06:12:59;;;;;;;25.02;10.90;;;9.50;99.90;;;;;;5037332;28;20674;-88
2023/04/18 06:15:24;;;;;;;20.77;11.25;;;9.60;99.90;;;;;;5033541;28;20181;-88
2023/04/18 06:17:50;;;;;;;21.48;9.93;;;9.60;99.90;;;;;;5028790;28;20525;-89
2023/04/18 06:20:16;;;;;;;20.83;10.23;;;;;;;;;;5039006;28;20188;-87
2023/04/18 06:22:43;;;;;;;25.67;9.93;;;9.60;99.90;;;;;;5038880;28;20204;-87
2023/04/18 06:25:09;;;;;;;21.37;11.23;;;9.60;99.90;;;;;;5041432;28;20200;-87
2023/04/18 06:27:36;;;;;;;17.75;8.70;;;9.70;99.90;;;;;;5063170;28;20192;-87
2023/04/18 06:30:02;;;;;;;19.85;9.57;;;9.70;99.90;;;;;;5044012;28;20188;-87
2023/04/18 06:32:27;;;;;;;21.30;11.25;;;9.70;99.90;;;;;;5038941;28;20654;-87
2023/04/18 06:34:53;;;;;;;18.23;9.60;;;9.80;99.90;;;;;;5033612;28;20188;-88
2023/04/18 06:37:19;;;;;;;24.90;10.15;;;9.80;99.90;;;;;;5035411;28;20181;-88
2023/04/18 06:39:45;;;;;;;23.73;11.23;;;;;;;;;;5037508;28;20553;-88
2023/04/18 06:42:11;;;;;;;20.23;10.20;;;9.90;99.90;;;;;;5039727;28;20211;-88
2023/04/18 06:44:37;;;;;;;24.35;10.20;;;;;;;;;;5015311;28;20663;-88
2023/04/18 06:47:03;;;;;;;27.55;11.15;;;10.00;99.90;;;;;;5033543;28;20280;-88
2023/04/18 06:49:29;;;;;;;25.85;10.52;;;;;;;;;;5018124;28;20271;-86
2023/04/18 06:51:57;;;;;;;24.33;10.13;;;10.10;99.90;;;;;;5034311;28;20208;-89
2023/04/18 06:54:23;;;;;;;20.08;9.48;;;10.20;99.90;;;;;;5036965;28;20189;-87
2023/04/18 06:56:49;;;;;;;28.35;11.80;;;;;;;;;;5049820;28;20238;-88
2023/04/18 06:59:15;;;;;;;21.10;10.18;;;10.40;99.90;;;;;;5035734;28;20404;-88
2023/04/18 07:01:41;;;;;;;29.70;11.18;;;10.60;99.90;;;;;;5053389;28;20604;-90
2023/04/18 07:04:07;;;;;;;22.83;10.48;;;;;;;;;;5045421;28;20213;-89
2023/04/18 07:06:34;;;;;;;21.60;10.52;;;10.90;99.90;;;;;;5031336;28;20663;-87
2023/04/18 07:09:00;;;;;;;22.75;10.75;;;11.00;99.90;;;;;;5015669;28;20184;-88
2023/04/18 07:11:27;;;;;;;21.73;10.38;;;11.20;99.90;;;;;;5030921;28;20544;-88
2023/04/18 07:13:52;;;;;;;23.10;11.55;;;8.70;99.90;;;;;;5030929;28;20184;-87
2023/04/18 07:16:18;;;;;;;24.58;10.85;;;8.60;99.90;;;;;;5031981;28;20181;-86
2023/04/18 07:18:44;;;;;;;17.13;9.45;;;11.30;99.90;;;;;;5032391;28;20185;-88
2023/04/18 07:21:10;;;;;;;23.75;10.35;;;11.40;99.90;;;;;;5015574;28;20183;-90
2023/04/18 07:23:36;;;;;;;17.13;8.68;;;11.50;99.90;;;;;;5032215;28;20635;-88
2023/04/18 07:26:10;;;;;;;19.63;9.45;;;11.60;99.90;;;;;;5032319;28;20275;-91
2023/04/18 07:28:35;;;;;;;18.73;9.50;;;9.80;99.90;;;;;;5032817;28;20196;-90
2023/04/18 07:31:03;;;;;;;20.35;10.07;;;11.50;99.90;;;;;;5032445;28;20204;-89
2023/04/18 07:33:32;;;;;;;16.73;9.68;;;11.50;99.90;;;;;;5032067;28;20271;-89
2023/04/18 07:35:59;;;;;;;16.83;9.00;;;11.60;99.90;;;;;;5016992;28;20185;-89
2023/04/18 07:38:28;;;;;;;14.93;8.15;;;11.70;99.90;;;;;;5033078;28;20173;-89
2023/04/18 07:40:58;;;;;;;16.95;8.60;;;11.70;99.90;;;;;;5017094;28;20211;-89
2023/04/18 07:43:24;;;;;;;19.85;10.15;;;11.90;99.90;;;;;;5032693;28;20173;-89
2023/04/18 07:45:50;;;;;;;18.83;8.48;;;11.90;99.90;;;;;;5032909;28;20184;-88
2023/04/18 07:48:16;;;;;;;20.90;8.30;;;11.80;99.90;;;;;;5033186;28;20172;-89
2023/04/18 07:50:42;;;;;;;16.80;8.57;;;;;;;;;;5033379;28;20211;-89
2023/04/18 07:53:08;;;;;;;18.30;7.97;;;11.90;99.90;;;;;;5015863;28;20574;-90
2023/04/18 07:55:34;;;;;;;14.52;8.05;;;12.00;99.90;;;;;;5016190;28;20184;-90
2023/04/18 07:58:00;;;;;;;11.63;7.18;;;;;;;;;;5015816;28;20188;-89
2023/04/18 08:00:27;;;;;;;15.82;7.25;;;12.10;99.90;;;;;;5032195;28;20238;-89
2023/04/18 08:02:53;;;;;;;14.85;7.20;;;12.20;99.90;;;;;;5032369;28;20180;-90
2023/04/18 08:05:19;;;;;;;12.88;7.13;;;;;;;;;;5032345;28;20603;-90
2023/04/18 08:07:45;;;;;;;12.68;6.72;;;12.20;99.90;;;;;;5032058;28;20770;-89
2023/04/18 08:10:14;;;;;;;15.18;6.97;;;12.30;99.90;;;;;;5031900;28;20183;-90
2023/04/18 08:12:39;;;;;;;14.57;7.72;;;12.40;99.90;;;;;;5032112;28;20685;-90
2023/04/18 08:15:06;;;;;;;12.00;5.93;;;12.50;99.90;;;;;;5032726;28;20176;-91
2023/04/18 08:17:32;;;;;;;10.60;6.00;;;12.50;99.90;;;;;;5015550;28;20230;-88
2023/04/18 08:19:59;;;;;;;11.55;6.25;;;12.50;99.90;;;;;;5036520;28;20653;-89
2023/04/18 08:22:25;;;;;;;10.65;5.90;;;12.50;99.90;;;;;;5037394;28;20250;-89
2023/04/18 08:24:51;;;;;;;8.77;6.03;;;;;;;;;;5036132;28;20172;-90
2023/04/18 08:27:17;;;;;;;10.60;6.47;;;12.70;99.90;;;;;;5032026;28;20180;-89
2023/04/18 08:29:42;;;;;;;10.45;6.35;;;11.60;99.90;;;;;;5031909;28;20178;-89
2023/04/18 08:32:08;;;;;;;10.43;6.28;;;12.70;99.90;;;;;;5031147;28;20204;-93
2023/04/18 08:34:37;;;;;;;15.75;6.78;;;13.20;99.90;;;;;;5031480;28;20614;-88
2023/04/18 08:37:02;;;;;;;12.57;7.10;;;12.80;99.90;;;;;;5031403;28;20264;-88
2023/04/18 08:39:29;;;;;;;11.38;6.63;;;12.80;99.90;;;;;;5032153;28;20636;-89
2023/04/18 08:41:59;;;;;;;10.25;6.55;;;12.80;99.90;;;;;;5031634;28;20692;-90
2023/04/18 08:44:28;;;;;;;14.23;6.72;;;12.90;99.90;;;;;;5016308;28;20553;-91
2023/04/18 08:46:54;;;;;;;9.27;5.97;;;12.90;99.90;;;;;;5032230;28;20192;-92
2023/04/18 08:49:23;;;;;;;15.23;6.43;;;13.00;99.90;;;;;;5032176;28;20291;-88
2023/04/18 08:51:51;;;;;;;17.80;7.43;;;13.10;99.90;;;;;;5031723;28;20196;-89
2023/04/18 08:54:18;;;;;;;8.65;5.60;;;13.20;99.90;;;;;;5049082;28;20176;-91
2023/04/18 08:56:44;;;;;;;13.55;6.63;;;13.10;99.90;;;;;;5032312;28;20589;-89
2023/04/18 08:59:10;;;;;;;9.75;5.65;;;13.10;99.90;;;;;;5034173;28;20231;-87
2023/04/18 09:01:56;;;;;;;9.73;5.60;;;13.20;99.90;;;;;;5032379;28;20168;-88
2023/04/18 09:04:39;;;;;;;9.95;4.90;;;13.20;99.90;;;;;;5043442;28;20168;-88
2023/04/18 09:07:10;;;;;;;8.27;5.00;;;13.30;99.90;;;;;;5031368;28;20180;-87
2023/04/18 09:09:48;;;;;;;10.68;6.30;;;13.40;99.90;;;;;;5031407;28;20172;-88
2023/04/18 09:12:21;;;;;;;8.48;5.40;;;13.50;99.90;;;;;;5031790;28;20223;-91
2023/04/18 09:14:51;;;;;;;7.28;5.10;;;13.70;99.90;;;;;;5032474;28;20576;-89
2023/04/18 09:17:51;;;;;;;14.70;6.10;;;13.50;99.90;;;;;;5029157;28;20659;-89
2023/04/18 09:20:31;;;;;;;12.57;6.53;;;13.90;99.90;;;;;;5028194;28;20199;-88
2023/04/18 09:22:56;;;;;;;14.35;6.65;;;13.60;99.90;;;;;;5032380;28;20176;-89
2023/04/18 09:25:36;;;;;;;15.70;7.38;;;13.70;99.90;;;;;;5034943;28;20250;-91
2023/04/18 09:28:03;;;;;;;8.02;4.68;;;13.80;99.90;;;;;;5034981;28;20172;-90
2023/04/18 09:30:31;;;;;;;12.35;6.30;;;13.80;99.90;;;;;;5032808;28;20203;-90
2023/04/18 09:32:59;;;;;;;12.60;6.40;;;13.90;99.90;;;;;;5036139;28;20172;-91
2023/04/18 09:35:25;;;;;;;9.90;5.65;;;14.70;99.90;;;;;;5044174;28;20187;-91
2023/04/18 09:37:51;;;;;;;10.20;4.97;;;13.90;99.90;;;;;;5045155;28;20184;-91
2023/04/18 09:40:17;;;;;;;10.40;5.65;;;13.90;99.90;;;;;;5045159;28;20238;-88
2023/04/18 09:42:44;;;;;;;13.95;7.05;;;14.10;99.90;;;;;;5047023;28;20232;-90
2023/04/18 09:45:11;;;;;;;13.23;5.72;;;14.10;99.90;;;;;;5045534;28;20168;-90
2023/04/18 09:47:38;;;;;;;10.77;6.40;;;14.20;99.90;;;;;;5035751;28;20188;-90
2023/04/18 09:50:08;;;;;;;10.25;5.50;;;11.50;99.90;;;;;;5037662;28;20173;-91
2023/04/18 09:52:40;;;;;;;11.40;5.65;;;14.00;99.90;;;;;;5037071;28;20149;-91
2023/04/18 09:55:09;;;;;;;12.38;5.47;;;14.00;99.90;;;;;;5038602;28;20176;-90
2023/04/18 09:57:35;;;;;;;10.25;6.68;;;14.00;99.90;;;;;;5027299;28;20203;-91
2023/04/18 10:00:22;;;;;;;9.15;6.03;;;14.00;99.90;;;;;;5023865;28;20228;-91
2023/04/18 10:02:48;;;;;;;9.88;6.10;;;14.10;99.90;;;;;;5036752;28;20196;-90
2023/04/18 10:05:15;;;;;;;11.55;5.43;;;14.00;99.90;;;;;;5043992;28;20230;-91
2023/04/18 10:07:44;;;;;;;11.23;6.82;;;14.20;99.90;;;;;;5021461;28;20185;-89
2023/04/18 10:10:11;;;;;;;11.30;6.25;;;14.10;99.90;;;;;;5034592;28;20176;-89
2023/04/18 10:12:38;;;;;;;10.63;6.22;;;14.10;99.90;;;;;;5027027;28;20200;-89
2023/04/18 10:15:05;;;;;;;10.98;6.70;;;14.20;99.90;;;;;;5035071;28;20227;-88
2023/04/18 10:18:08;;;;;;;13.85;6.60;;;14.30;99.90;;;;;;5019126;28;20580;-90
2023/04/18 10:20:34;;;;;;;15.23;6.55;;;14.50;99.90;;;;;;5015313;28;20253;-92
2023/04/18 10:23:33;;;;;;;8.55;5.32;;;14.60;99.90;;;;;;5035299;28;20556;-90
2023/04/18 10:26:00;;;;;;;9.82;5.53;;;14.70;99.90;;;;;;5034915;28;20630;-90
2023/04/18 10:28:27;;;;;;;12.25;5.05;;;15.00;99.90;;;;;;5035323;28;20177;-90
2023/04/18 10:31:02;;;;;;;9.40;5.57;;;15.20;99.90;;;;;;5039767;28;20226;-90
2023/04/18 10:33:39;;;;;;;9.20;5.50;;;15.40;99.90;;;;;;5039433;28;20303;-90
2023/04/18 10:36:18;;;;;;;10.57;4.63;;;15.50;99.90;;;;;;5048633;28;20244;-91
2023/04/18 10:38:50;;;;;;;9.48;5.18;;;15.60;99.90;;;;;;5041435;28;20207;-90
2023/04/18 10:41:21;;;;;;;11.00;5.53;;;15.60;99.90;;;;;;5040698;28;20280;-87
2023/04/18 10:44:22;;;;;;;8.88;5.22;;;15.80;99.90;;;;;;5040958;28;20263;-89
2023/04/18 10:46:51;;;;;;;6.43;4.35;;;16.10;99.90;;;;;;4994265;28;20185;-90
2023/04/18 10:49:22;;;;;;;8.23;4.90;;;16.20;99.90;;;;;;5026727;28;20238;-88
2023/04/18 10:51:52;;;;;;;9.30;5.07;;;16.30;99.90;;;;;;5034469;28;20216;-88
2023/04/18 10:54:27;;;;;;;11.18;4.97;;;16.30;99.90;;;;;;5018769;28;20184;-88
2023/04/18 10:56:58;;;;;;;6.30;4.85;;;16.30;99.90;;;;;;5036076;28;20183;-89
2023/04/18 10:59:25;;;;;;;6.25;4.07;;;16.30;99.90;;;;;;5035339;28;20718;-88
2023/04/18 11:02:28;;;;;;;8.93;5.15;;;16.50;99.90;;;;;;5035859;28;20239;-88
2023/04/18 11:04:55;;;;;;;12.63;5.18;;;16.60;99.90;;;;;;5035270;28;20179;-90
2023/04/18 11:07:39;;;;;;;8.50;5.38;;;16.70;99.90;;;;;;5034789;28;20251;-89
2023/04/18 11:10:07;;;;;;;9.65;5.18;;;16.90;99.90;;;;;;5034346;28;20172;-90
2023/04/18 11:12:35;;;;;;;6.47;4.10;;;17.00;99.90;;;;;;5034583;28;20179;-91
2023/04/18 11:15:03;;;;;;;5.65;3.70;;;17.20;99.90;;;;;;5035745;28;20226;-90
2023/04/18 11:17:34;;;;;;;6.07;3.63;;;17.50;99.90;;;;;;5035228;28;20661;-89
2023/04/18 11:20:23;;;;;;;9.27;5.13;;;17.80;99.90;;;;;;5018296;28;20621;-89
2023/04/18 11:22:57;;;;;;;5.55;3.42;;;18.00;96.00;;;;;;5033624;28;20179;-89
2023/04/18 11:25:30;;;;;;;7.13;3.30;;;17.80;95.80;;;;;;5035458;28;20197;-89
2023/04/18 11:28:00;;;;;;;7.90;4.07;;;18.00;96.00;;;;;;5033879;28;20172;-89
2023/04/18 11:30:27;;;;;;;4.93;3.33;;;18.00;95.10;;;;;;5018199;28;20231;-88
2023/04/18 11:32:54;;;;;;;4.15;3.35;;;17.90;94.70;;;;;;5037673;28;20173;-89
2023/04/18 11:35:20;;;;;;;5.30;3.17;;;17.80;94.40;;;;;;5035928;28;20177;-90
2023/04/18 11:37:48;;;;;;;4.75;3.10;;;17.10;93.50;;;;;;5034947;28;20635;-90
2023/04/18 11:40:14;;;;;;;3.97;2.85;;;17.70;92.70;;;;;;5034197;28;20188;-89
2023/04/18 11:42:41;;;;;;;3.17;2.38;;;17.70;91.20;;;;;;5033436;28;20279;-89
2023/04/18 11:45:11;;;;;;;3.33;2.47;;;17.80;90.30;;;;;;5035107;28;20204;-89
2023/04/18 11:47:37;;;;;;;3.75;2.63;;;17.80;90.10;;;;;;5033583;28;20637;-89
2023/04/18 11:50:08;;;;;;;4.70;2.90;;;19.70;91.40;;;;;;5033775;28;20223;-89
2023/04/18 11:52:35;;;;;;;5.05;2.67;;;17.80;90.00;;;;;;5034722;28;20686;-89
2023/04/18 11:55:20;;;;;;;4.13;2.58;;;17.80;89.40;;;;;;5047461;28;20187;-88
2023/04/18 11:57:53;;;;;;;3.35;2.05;;;17.70;83.40;;;;;;5050423;28;20202;-88
2023/04/18 12:00:40;;;;;;;2.55;2.20;;;17.60;81.20;;;;;;5049021;28;20259;-88
2023/04/18 12:03:17;;;;;;;5.28;2.67;;;17.80;82.30;;;;;;5037408;28;20161;-89
2023/04/18 12:05:44;;;;;;;5.97;2.40;;;17.80;77.20;;;;;;5019420;28;20275;-89
2023/04/18 12:08:12;;;;;;;4.47;1.80;;;17.60;77.10;;;;;;5034752;28;20177;-89
2023/04/18 12:10:45;;;;;;;3.70;2.08;;;17.70;78.10;;;;;;5033199;28;20216;-89
2023/04/18 12:13:11;;;;;;;3.28;1.73;;;17.80;77.10;;;;;;5033746;28;20184;-89
2023/04/18 12:15:40;;;;;;;3.55;2.35;;;17.80;78.60;;;;;;5016839;28;20188;-89
2023/04/18 12:18:09;;;;;;;2.33;1.85;;;17.90;77.40;;;;;;5032630;28;20700;-88
2023/04/18 12:20:46;;;;;;;3.30;2.13;;;17.80;75.90;;;;;;5032795;28;20176;-89
2023/04/18 12:23:30;;;;;;;3.90;2.40;;;17.60;75.10;;;;;;5034905;28;20196;-88
2023/04/18 12:26:11;;;;;;;2.17;1.83;;;17.50;75.00;;;;;;5034488;28;20191;-90
2023/04/18 12:28:37;;;;;;;3.58;2.13;;;17.60;77.20;;;;;;5033230;28;20180;-88
2023/04/18 12:31:06;;;;;;;7.30;2.63;;;17.70;76.30;;;;;;5032762;28;20685;-88
2023/04/18 12:33:34;;;;;;;4.20;2.33;;;17.90;75.80;;;;;;5032510;28;20180;-89
2023/04/18 12:36:00;;;;;;;2.85;2.20;;;18.10;76.50;;;;;;5032541;28;20539;-88
2023/04/18 12:38:26;;;;;;;4.13;2.72;;;18.10;76.60;;;;;;5032830;28;20176;-89
2023/04/18 12:40:52;;;;;;;5.70;3.03;;;18.10;78.60;;;;;;5016099;28;20733;-87
2023/04/18 12:43:18;;;;;;;7.72;3.03;;;17.90;79.30;;;;;;5033899;28;20173;-88
2023/04/18 12:45:45;;;;;;;4.35;3.03;;;17.90;81.60;;;;;;5001189;28;20216;-89
2023/04/18 12:48:10;;;;;;;4.15;3.05;;;17.70;79.60;;;;;;5032201;28;20202;-87
2023/04/18 12:50:36;;;;;;;7.40;3.55;;;17.70;80.90;;;;;;5032015;28;20220;-86
2023/04/18 12:53:02;;;;;;;13.35;3.95;;;17.60;83.20;;;;;;5035418;28;20176;-87
2023/04/18 12:55:28;;;;;;;5.75;3.33;;;17.50;83.10;;;;;;5036484;28;20270;-88
2023/04/18 12:57:55;;;;;;;6.20;3.47;;;17.40;83.10;;;;;;5033522;28;20552;-87
2023/04/18 13:00:22;;;;;;;5.82;3.30;;;17.50;84.90;;;;;;5015968;28;20243;-87
2023/04/18 13:02:49;;;;;;;8.10;3.58;;;17.80;83.00;;;;;;5034264;28;20645;-90
2023/04/18 13:05:16;;;;;;;3.95;3.00;;;18.10;81.50;;;;;;5032350;28;20575;-89
2023/04/18 13:07:42;;;;;;;6.10;3.40;;;18.40;81.10;;;;;;5032759;28;20191;-89
2023/04/18 13:10:12;;;;;;;4.65;3.10;;;18.50;81.40;;;;;;5033185;28;20201;-89